createdAt,value
2018-11-23T00:00:21.457Z,58.10
2018-11-23T00:02:52.985Z,58.10
2018-11-23T00:05:24.166Z,58.10
2018-11-23T00:07:56.212Z,58.10
2018-11-23T00:10:28.524Z,58.00
2018-11-23T00:12:59.796Z,58.00
2018-11-23T00:15:31.185Z,58.00
2018-11-23T00:18:02.435Z,58.00
2018-11-23T00:20:34.224Z,58.00
2018-11-23T00:23:05.680Z,57.90
2018-11-23T00:25:36.618Z,57.80
2018-11-23T00:28:08.180Z,57.80
2018-11-23T00:30:39.133Z,57.70
2018-11-23T00:33:10.707Z,57.70
2018-11-23T00:35:41.962Z,57.70
2018-11-23T00:38:13.264Z,57.70
2018-11-23T00:40:44.248Z,57.70
2018-11-23T00:43:15.911Z,57.60
2018-11-23T00:45:46.825Z,57.70
2018-11-23T00:48:17.863Z,57.80
2018-11-23T00:50:49.205Z,57.80
2018-11-23T00:53:20.415Z,57.80
2018-11-23T00:55:52.136Z,57.80
2018-11-23T00:58:24.210Z,57.70
2018-11-23T01:00:55.813Z,57.60
2018-11-23T01:03:27.282Z,57.60
2018-11-23T01:05:58.530Z,57.60
2018-11-23T01:08:30.028Z,57.60
2018-11-23T01:11:01.052Z,57.50
2018-11-23T01:13:32.320Z,58.10
2018-11-23T01:16:03.479Z,57.50
2018-11-23T01:18:34.453Z,57.50
2018-11-23T01:21:05.604Z,57.50
2018-11-23T01:23:36.918Z,57.40
2018-11-23T01:26:08.350Z,57.30
2018-11-23T01:28:40.151Z,57.30
2018-11-23T01:31:11.741Z,57.30
2018-11-23T01:33:43.034Z,57.30
2018-11-23T01:36:14.736Z,57.30
2018-11-23T01:38:46.199Z,57.40
2018-11-23T01:41:17.803Z,57.40
2018-11-23T01:43:49.342Z,57.50
2018-11-23T01:46:20.728Z,57.50
2018-11-23T01:48:53.340Z,57.60
2018-11-23T01:51:25.368Z,57.50
2018-11-23T01:53:57.292Z,57.60
2018-11-23T01:56:29.626Z,57.60
2018-11-23T01:59:00.809Z,57.60
2018-11-23T02:01:32.321Z,57.60
2018-11-23T02:04:03.778Z,57.60
2018-11-23T02:06:35.390Z,57.50
2018-11-23T02:09:07.982Z,57.50
2018-11-23T02:11:39.439Z,57.40
2018-11-23T02:14:11.142Z,57.50
2018-11-23T02:16:42.672Z,57.50
2018-11-23T02:19:14.092Z,57.30
2018-11-23T02:21:45.264Z,57.30
2018-11-23T02:24:17.379Z,57.30
2018-11-23T02:26:48.962Z,57.30
2018-11-23T02:29:21.592Z,57.30
2018-11-23T02:31:53.657Z,57.30
2018-11-23T02:34:25.725Z,57.30
2018-11-23T02:36:57.221Z,57.30
2018-11-23T02:39:28.342Z,57.30
2018-11-23T02:42:00.038Z,57.40
2018-11-23T02:44:31.742Z,57.30
2018-11-23T02:47:03.334Z,57.40
2018-11-23T02:49:35.126Z,57.40
2018-11-23T02:52:07.980Z,57.50
2018-11-23T02:54:39.279Z,57.50
2018-11-23T02:57:10.433Z,57.50
2018-11-23T02:59:41.563Z,57.50
2018-11-23T03:02:12.528Z,57.50
2018-11-23T03:04:43.795Z,57.40
2018-11-23T03:07:15.131Z,57.40
2018-11-23T03:09:46.550Z,57.40
2018-11-23T03:12:18.706Z,57.40
2018-11-23T03:14:50.545Z,57.20
2018-11-23T03:17:21.997Z,57.20
2018-11-23T03:19:53.687Z,57.10
2018-11-23T03:22:25.093Z,57.10
2018-11-23T03:24:56.044Z,57.10
2018-11-23T03:27:27.079Z,57.80
2018-11-23T03:29:58.641Z,57.20
2018-11-23T03:32:30.332Z,57.20
2018-11-23T03:35:01.931Z,57.20
2018-11-23T03:37:33.493Z,57.20
2018-11-23T03:40:04.473Z,57.20
2018-11-23T03:42:35.925Z,57.10
2018-11-23T03:45:08.227Z,57.10
2018-11-23T03:47:39.595Z,57.10
2018-11-23T03:50:13.049Z,57.10
2018-11-23T03:52:44.349Z,57.10
2018-11-23T03:55:15.697Z,57.00
2018-11-23T03:57:47.251Z,57.00
2018-11-23T04:00:20.079Z,57.00
2018-11-23T04:02:51.836Z,57.00
2018-11-23T04:05:23.035Z,57.00
2018-11-23T04:07:54.321Z,56.90
2018-11-23T04:10:25.635Z,56.90
2018-11-23T04:12:56.691Z,56.80
2018-11-23T04:15:28.447Z,56.80
2018-11-23T04:18:00.002Z,56.80
2018-11-23T04:20:35.047Z,56.70
2018-11-23T04:23:06.492Z,56.70
2018-11-23T04:25:37.890Z,56.70
2018-11-23T04:28:09.295Z,56.60
2018-11-23T04:30:40.263Z,56.70
2018-11-23T04:33:11.810Z,56.60
2018-11-23T04:35:42.863Z,56.60
2018-11-23T04:38:14.001Z,56.70
2018-11-23T04:40:45.063Z,56.70
2018-11-23T04:43:16.075Z,56.70
2018-11-23T04:45:47.859Z,56.80
2018-11-23T04:48:18.959Z,56.80
2018-11-23T04:50:50.273Z,56.90
2018-11-23T04:53:21.370Z,56.80
2018-11-23T04:55:52.594Z,56.90
2018-11-23T04:58:23.662Z,56.90
2018-11-23T05:00:54.971Z,56.90
2018-11-23T05:03:26.377Z,56.90
2018-11-23T05:05:57.909Z,56.90
2018-11-23T05:08:29.075Z,57.00
2018-11-23T05:11:00.377Z,57.10
2018-11-23T05:13:31.894Z,57.10
2018-11-23T05:16:03.088Z,57.10
2018-11-23T05:18:34.624Z,57.40
2018-11-23T05:21:05.833Z,57.00
2018-11-23T05:23:37.662Z,56.90
2018-11-23T05:26:08.953Z,56.80
2018-11-23T05:28:40.370Z,56.80
2018-11-23T05:31:11.871Z,56.80
2018-11-23T05:33:43.876Z,56.70
2018-11-23T05:36:15.548Z,56.60
2018-11-23T05:38:46.730Z,56.60
2018-11-23T05:41:17.953Z,56.50
2018-11-23T05:43:49.155Z,56.40
2018-11-23T05:46:31.072Z,56.40
2018-11-23T05:49:03.446Z,56.30
2018-11-23T05:51:34.805Z,56.30
2018-11-23T05:54:06.975Z,56.30
2018-11-23T05:56:39.603Z,56.30
2018-11-23T05:59:11.352Z,56.30
2018-11-23T06:01:42.880Z,56.20
2018-11-23T06:04:14.035Z,56.20
2018-11-23T06:06:46.089Z,56.10
2018-11-23T06:09:17.748Z,56.10
2018-11-23T06:11:48.963Z,56.10
2018-11-23T06:14:20.962Z,56.10
2018-11-23T06:16:52.954Z,56.00
2018-11-23T06:19:24.430Z,56.00
2018-11-23T06:21:55.571Z,56.00
2018-11-23T06:24:31.949Z,56.00
2018-11-23T06:26:59.329Z,55.90
2018-11-23T06:29:30.418Z,55.90
2018-11-23T06:32:02.299Z,56.00
2018-11-23T06:34:33.641Z,55.90
2018-11-23T06:37:04.829Z,55.90
2018-11-23T06:39:36.184Z,55.90
2018-11-23T06:42:08.836Z,56.60
2018-11-23T06:44:40.580Z,55.90
2018-11-23T06:47:13.356Z,55.90
2018-11-23T06:49:45.908Z,55.90
2018-11-23T06:52:18.394Z,56.00
2018-11-23T06:54:51.066Z,56.00
2018-11-23T06:57:39.175Z,56.00
2018-11-23T07:00:13.813Z,56.00
2018-11-23T07:02:45.808Z,56.10
2018-11-23T07:05:17.430Z,56.00
2018-11-23T07:07:48.727Z,56.00
2018-11-23T07:10:20.068Z,56.10
2018-11-23T07:12:51.231Z,56.00
2018-11-23T07:15:22.754Z,56.10
2018-11-23T07:17:54.781Z,56.10
2018-11-23T07:20:25.782Z,56.10
2018-11-23T07:22:57.270Z,56.10
2018-11-23T07:25:28.481Z,56.10
2018-11-23T07:27:59.992Z,56.00
2018-11-23T07:30:32.035Z,55.90
2018-11-23T07:33:04.041Z,55.90
2018-11-23T07:35:50.639Z,55.90
2018-11-23T07:38:22.670Z,55.90
2018-11-23T07:41:04.744Z,55.90
2018-11-23T07:43:37.345Z,55.90
2018-11-23T07:46:09.926Z,55.90
2018-11-23T07:48:42.091Z,55.90
2018-11-23T07:51:13.561Z,55.80
2018-11-23T07:53:46.052Z,55.80
2018-11-23T07:56:17.582Z,55.70
2018-11-23T07:58:49.118Z,55.70
2018-11-23T08:01:20.915Z,55.80
2018-11-23T08:03:52.332Z,55.80
2018-11-23T08:06:24.411Z,55.80
2018-11-23T08:08:56.215Z,55.90
2018-11-23T08:11:27.856Z,55.70
2018-11-23T08:13:59.662Z,55.80
2018-11-23T08:16:30.940Z,55.80
2018-11-23T08:19:02.301Z,55.90
2018-11-23T08:21:33.751Z,55.90
2018-11-23T08:24:05.203Z,55.80
2018-11-23T08:26:36.673Z,55.80
2018-11-23T08:29:09.319Z,55.70
2018-11-23T08:31:41.583Z,55.70
2018-11-23T08:34:14.766Z,55.70
2018-11-23T08:36:46.200Z,55.70
2018-11-23T08:39:17.557Z,55.70
2018-11-23T08:41:48.991Z,55.90
2018-11-23T08:44:21.393Z,55.70
2018-11-23T08:46:52.874Z,55.60
2018-11-23T08:49:24.534Z,55.70
2018-11-23T08:51:56.199Z,55.70
2018-11-23T08:54:27.675Z,55.70
2018-11-23T08:56:59.266Z,55.70
2018-11-23T08:59:30.864Z,55.70
2018-11-23T09:02:01.900Z,55.70
2018-11-23T09:04:33.748Z,55.70
2018-11-23T09:07:05.072Z,55.60
2018-11-23T09:09:36.018Z,55.70
2018-11-23T09:12:07.220Z,56.30
2018-11-23T09:14:38.287Z,55.70
2018-11-23T09:17:09.832Z,55.70
2018-11-23T09:19:41.250Z,55.70
2018-11-23T09:22:13.278Z,55.70
2018-11-23T09:24:45.774Z,55.70
2018-11-23T09:27:17.585Z,55.70
2018-11-23T09:29:49.488Z,55.70
2018-11-23T09:32:20.650Z,55.80
2018-11-23T09:34:51.857Z,55.90
2018-11-23T09:37:24.428Z,55.90
2018-11-23T09:39:56.024Z,55.90
2018-11-23T09:42:27.345Z,55.90
2018-11-23T09:44:58.912Z,55.80
2018-11-23T09:47:30.766Z,55.80
2018-11-23T09:50:02.914Z,55.80
2018-11-23T09:52:33.956Z,55.70
2018-11-23T09:55:05.306Z,55.80
2018-11-23T09:57:37.920Z,55.70
2018-11-23T10:00:18.094Z,55.70
2018-11-23T10:02:51.354Z,55.70
2018-11-23T10:05:23.176Z,55.70
2018-11-23T10:07:56.224Z,55.80
2018-11-23T10:10:28.298Z,55.70
2018-11-23T10:12:59.715Z,55.70
2018-11-23T10:15:32.396Z,55.70
2018-11-23T10:18:03.972Z,55.70
2018-11-23T10:20:35.785Z,55.60
2018-11-23T10:23:07.594Z,55.60
2018-11-23T10:25:39.275Z,55.60
2018-11-23T10:28:11.229Z,55.60
2018-11-23T10:30:42.617Z,55.70
2018-11-23T10:33:13.871Z,55.70
2018-11-23T10:35:44.988Z,55.70
2018-11-23T10:38:16.262Z,55.80
2018-11-23T10:40:47.564Z,55.90
2018-11-23T10:43:18.618Z,55.90
2018-11-23T10:45:50.606Z,56.10
2018-11-23T10:48:21.918Z,56.10
2018-11-23T10:50:52.696Z,56.10
2018-11-23T10:53:24.136Z,56.10
2018-11-23T10:55:56.049Z,56.20
2018-11-23T10:58:27.911Z,56.40
2018-11-23T11:01:04.868Z,56.50
2018-11-23T11:03:41.616Z,56.50
2018-11-23T11:06:19.091Z,56.50
2018-11-23T11:08:54.536Z,56.60
2018-11-23T11:11:27.268Z,56.60
2018-11-23T11:14:02.806Z,56.60
2018-11-23T11:16:36.208Z,56.60
2018-11-23T11:19:09.228Z,56.60
2018-11-23T11:21:42.310Z,56.70
2018-11-23T11:24:14.318Z,56.60
2018-11-23T11:26:45.558Z,56.60
2018-11-23T11:29:26.545Z,56.60
2018-11-23T11:31:58.822Z,56.50
2018-11-23T11:34:31.258Z,56.60
2018-11-23T11:37:02.654Z,56.60
2018-11-23T11:39:34.975Z,56.60
2018-11-23T11:42:07.442Z,56.70
2018-11-23T11:44:39.209Z,56.70
2018-11-23T11:47:11.743Z,56.70
2018-11-23T11:49:59.117Z,56.80
2018-11-23T11:52:30.206Z,56.80
2018-11-23T11:55:01.850Z,56.80
2018-11-23T11:57:34.170Z,56.90
2018-11-23T12:00:06.792Z,56.90
2018-11-23T12:02:38.628Z,57.00
2018-11-23T12:05:11.898Z,57.00
2018-11-23T12:07:43.375Z,57.00
2018-11-23T12:10:16.900Z,57.10
2018-11-23T12:12:48.468Z,57.20
2018-11-23T12:15:20.614Z,57.20
2018-11-23T12:17:51.935Z,57.30
2018-11-23T12:20:24.850Z,57.30
2018-11-23T12:22:56.483Z,57.40
2018-11-23T12:25:27.870Z,57.40
2018-11-23T12:28:00.254Z,57.40
2018-11-23T12:30:32.253Z,57.50
2018-11-23T12:33:03.357Z,57.50
2018-11-23T12:35:34.676Z,57.50
2018-11-23T12:38:06.236Z,57.50
2018-11-23T12:40:37.955Z,57.60
2018-11-23T12:43:09.520Z,57.50
2018-11-23T12:45:41.265Z,57.60
2018-11-23T12:48:12.132Z,57.60
2018-11-23T12:50:43.706Z,57.70
2018-11-23T12:53:15.238Z,57.60
2018-11-23T12:55:48.255Z,57.70
2018-11-23T12:58:20.039Z,57.70
2018-11-23T13:00:51.298Z,57.60
2018-11-23T13:03:22.620Z,57.70
2018-11-23T13:05:53.940Z,57.60
2018-11-23T13:08:25.468Z,57.60
2018-11-23T13:11:04.512Z,57.70
2018-11-23T13:13:35.821Z,57.60
2018-11-23T13:16:07.078Z,57.60
2018-11-23T13:18:38.726Z,57.60
2018-11-23T13:21:10.014Z,57.70
2018-11-23T13:23:40.823Z,57.70
2018-11-23T13:26:12.176Z,57.70
2018-11-23T13:28:43.859Z,57.80
2018-11-23T13:31:15.188Z,57.80
2018-11-23T13:33:46.073Z,57.90
2018-11-23T13:36:18.023Z,57.90
2018-11-23T13:38:49.516Z,57.90
2018-11-23T13:41:21.110Z,57.90
2018-11-23T13:43:53.217Z,57.90
2018-11-23T13:46:25.414Z,58.00
2018-11-23T13:49:09.549Z,58.00
2018-11-23T13:51:42.194Z,58.00
2018-11-23T13:54:14.504Z,58.00
2018-11-23T13:56:47.163Z,58.00
2018-11-23T13:59:21.841Z,58.00
2018-11-23T14:01:53.186Z,58.00
2018-11-23T14:04:25.623Z,58.00
2018-11-23T14:06:58.567Z,58.00
2018-11-23T14:09:31.043Z,58.00
2018-11-23T14:12:06.183Z,58.00
2018-11-23T14:14:38.702Z,58.00
2018-11-23T14:17:10.638Z,58.00
2018-11-23T14:19:43.100Z,58.00
2018-11-23T14:22:17.401Z,58.00
2018-11-23T14:24:49.582Z,57.90
2018-11-23T14:27:21.965Z,57.90
2018-11-23T14:29:55.348Z,57.90
2018-11-23T14:32:27.750Z,57.90
2018-11-23T14:35:00.214Z,57.80
2018-11-23T14:37:32.312Z,57.80
2018-11-23T14:40:05.768Z,57.80
2018-11-23T14:42:39.294Z,57.90
2018-11-23T14:45:14.200Z,57.80
2018-11-23T14:47:47.702Z,57.80
2018-11-23T14:50:25.758Z,57.90
2018-11-23T14:52:58.858Z,58.00
2018-11-23T14:55:31.981Z,58.00
2018-11-23T14:58:04.556Z,58.00
2018-11-23T15:00:37.834Z,58.10
2018-11-23T15:03:10.035Z,58.00
2018-11-23T15:05:42.370Z,58.00
2018-11-23T15:08:14.865Z,58.00
2018-11-23T15:10:46.369Z,58.10
2018-11-23T15:13:18.692Z,58.20
2018-11-23T15:15:51.836Z,58.20
2018-11-23T15:18:23.949Z,58.20
2018-11-23T15:20:56.060Z,58.20
2018-11-23T15:23:28.181Z,58.20
2018-11-23T15:26:00.994Z,58.20
2018-11-23T15:28:33.436Z,58.30
2018-11-23T15:31:05.574Z,58.30
2018-11-23T15:33:38.061Z,58.30
2018-11-23T15:36:10.294Z,58.30
2018-11-23T15:38:43.192Z,58.30
2018-11-23T15:41:15.442Z,58.40
2018-11-23T15:43:47.956Z,58.30
2018-11-23T15:46:20.621Z,58.30
2018-11-23T15:48:52.669Z,58.30
2018-11-23T15:51:38.405Z,58.30
2018-11-23T15:54:10.994Z,58.30
2018-11-23T15:56:43.876Z,58.30
2018-11-23T15:59:16.352Z,58.20
2018-11-23T16:01:49.212Z,58.20
2018-11-23T16:04:21.160Z,58.20
2018-11-23T16:06:55.205Z,58.40
2018-11-23T16:09:28.366Z,58.20
2018-11-23T16:12:01.024Z,58.20
2018-11-23T16:14:33.081Z,58.20
2018-11-23T16:17:05.092Z,58.20
2018-11-23T16:19:37.497Z,58.20
2018-11-23T16:22:09.912Z,58.80
2018-11-23T16:24:42.190Z,58.20
2018-11-23T16:27:14.566Z,58.20
2018-11-23T16:29:46.972Z,58.30
2018-11-23T16:32:20.556Z,58.20
2018-11-23T16:34:53.184Z,58.30
2018-11-23T16:37:30.784Z,58.30
2018-11-23T16:40:02.277Z,58.20
2018-11-23T16:42:34.211Z,58.20
2018-11-23T16:45:07.559Z,58.20
2018-11-23T16:47:40.057Z,58.30
2018-11-23T16:50:12.840Z,58.20
2018-11-23T16:52:45.862Z,58.20
2018-11-23T16:55:19.995Z,58.20
2018-11-23T16:57:57.922Z,58.10
2018-11-23T17:00:31.906Z,58.20
2018-11-23T17:03:05.950Z,58.10
2018-11-23T17:05:41.349Z,58.80
2018-11-23T17:08:13.167Z,58.10
2018-11-23T17:10:45.673Z,58.20
2018-11-23T17:13:18.361Z,58.10
2018-11-23T17:15:50.781Z,58.20
2018-11-23T17:18:23.091Z,58.20
2018-11-23T17:20:55.150Z,58.30
2018-11-23T17:23:27.120Z,58.30
2018-11-23T17:25:59.670Z,58.30
2018-11-23T17:28:32.162Z,58.40
2018-11-23T17:31:04.434Z,58.50
2018-11-23T17:33:37.074Z,58.50
2018-11-23T17:36:09.440Z,58.60
2018-11-23T17:38:47.297Z,58.60
2018-11-23T17:41:14.151Z,58.60
2018-11-23T17:43:46.588Z,58.60
2018-11-23T17:46:21.789Z,58.60
2018-11-23T17:48:54.230Z,58.70
2018-11-23T17:51:26.163Z,58.80
2018-11-23T17:53:58.869Z,58.70
2018-11-23T17:56:31.190Z,58.70
2018-11-23T17:59:04.861Z,58.60
2018-11-23T18:01:35.129Z,58.60
2018-11-23T18:04:08.106Z,58.60
2018-11-23T18:06:40.067Z,58.50
2018-11-23T18:09:12.918Z,58.60
2018-11-23T18:11:45.767Z,58.50
2018-11-23T18:14:17.985Z,58.50
2018-11-23T18:16:50.072Z,58.50
2018-11-23T18:19:36.278Z,58.50
2018-11-23T18:22:09.118Z,58.60
2018-11-23T18:24:41.746Z,58.70
2018-11-23T18:27:14.018Z,58.80
2018-11-23T18:29:45.571Z,58.90
2018-11-23T18:32:18.074Z,58.90
2018-11-23T18:34:50.514Z,58.90
2018-11-23T18:37:23.008Z,58.90
2018-11-23T18:39:55.546Z,58.90
2018-11-23T18:42:31.663Z,58.90
2018-11-23T18:45:04.224Z,59.10
2018-11-23T18:47:36.868Z,58.90
2018-11-23T18:50:14.473Z,58.80
2018-11-23T18:52:47.045Z,58.80
2018-11-23T18:55:18.953Z,58.80
2018-11-23T18:57:52.006Z,58.80
2018-11-23T19:00:24.623Z,58.70
2018-11-23T19:02:57.224Z,58.70
2018-11-23T19:05:30.242Z,58.70
2018-11-23T19:08:02.725Z,58.70
2018-11-23T19:10:35.414Z,58.70
2018-11-23T19:13:08.332Z,58.80
2018-11-23T19:15:40.880Z,58.80
2018-11-23T19:18:12.908Z,58.90
2018-11-23T19:20:45.309Z,58.90
2018-11-23T19:23:16.540Z,58.90
2018-11-23T19:25:48.970Z,59.00
2018-11-23T19:28:21.664Z,59.00
2018-11-23T19:30:54.434Z,58.90
2018-11-23T19:33:26.721Z,58.90
2018-11-23T19:35:58.882Z,58.90
2018-11-23T19:38:31.525Z,58.90
2018-11-23T19:41:03.838Z,58.80
2018-11-23T19:43:36.357Z,58.90
2018-11-23T19:46:08.492Z,58.80
2018-11-23T19:48:41.402Z,58.80
2018-11-23T19:51:12.588Z,58.70
2018-11-23T19:53:44.984Z,58.80
2018-11-23T19:56:17.570Z,58.70
2018-11-23T19:58:49.675Z,58.70
2018-11-23T20:01:22.005Z,58.80
2018-11-23T20:03:55.124Z,58.80
2018-11-23T20:06:27.728Z,58.70
2018-11-23T20:09:00.462Z,58.70
2018-11-23T20:11:33.221Z,58.70
2018-11-23T20:14:05.623Z,58.70
2018-11-23T20:16:37.330Z,58.70
2018-11-23T20:19:08.543Z,58.60
2018-11-23T20:21:41.250Z,58.60
2018-11-23T20:24:13.345Z,59.20
2018-11-23T20:26:45.686Z,58.50
2018-11-23T20:29:16.933Z,58.50
2018-11-23T20:31:48.609Z,58.50
2018-11-23T20:34:21.376Z,58.50
2018-11-23T20:36:53.911Z,58.50
2018-11-23T20:39:25.878Z,58.60
2018-11-23T20:41:58.952Z,59.30
2018-11-23T20:44:31.476Z,58.60
2018-11-23T20:47:03.540Z,58.60
2018-11-23T20:49:35.429Z,58.60
2018-11-23T20:52:07.392Z,58.50
2018-11-23T20:54:38.587Z,58.50
2018-11-23T20:57:10.483Z,58.50
2018-11-23T20:59:42.124Z,58.50
2018-11-23T21:02:13.703Z,58.50
2018-11-23T21:04:45.578Z,58.50
2018-11-23T21:07:17.222Z,58.40
2018-11-23T21:09:48.382Z,58.40
2018-11-23T21:12:20.021Z,58.40
2018-11-23T21:14:51.518Z,58.40
2018-11-23T21:17:22.676Z,58.40
2018-11-23T21:19:54.280Z,58.40
2018-11-23T21:22:25.890Z,58.40
2018-11-23T21:24:58.387Z,58.40
2018-11-23T21:27:30.099Z,58.50
2018-11-23T21:30:01.163Z,58.60
2018-11-23T21:32:32.626Z,58.60
2018-11-23T21:35:03.827Z,58.70
2018-11-23T21:37:35.742Z,58.70
2018-11-23T21:40:10.235Z,58.90
2018-11-23T21:42:42.428Z,59.00
2018-11-23T21:45:19.840Z,59.00
2018-11-23T21:47:51.012Z,59.00
2018-11-23T21:50:25.318Z,59.10
2018-11-23T21:52:55.412Z,59.10
2018-11-23T21:55:27.536Z,59.20
2018-11-23T21:57:59.652Z,59.20
2018-11-23T22:00:33.004Z,59.20
2018-11-23T22:03:04.844Z,59.20
2018-11-23T22:05:36.419Z,59.30
2018-11-23T22:08:07.942Z,59.40
2018-11-23T22:10:39.570Z,59.40
2018-11-23T22:13:10.907Z,59.40
2018-11-23T22:15:42.526Z,59.40
2018-11-23T22:18:14.531Z,59.40
2018-11-23T22:20:45.750Z,59.30
2018-11-23T22:23:17.175Z,59.20
2018-11-23T22:25:48.384Z,59.20
2018-11-23T22:28:20.879Z,59.20
2018-11-23T22:30:52.126Z,59.20
2018-11-23T22:33:22.982Z,59.10
2018-11-23T22:35:54.431Z,59.00
2018-11-23T22:38:38.568Z,59.00
2018-11-23T22:41:09.886Z,59.00
2018-11-23T22:43:41.542Z,59.00
2018-11-23T22:46:13.794Z,58.90
2018-11-23T22:48:45.460Z,59.00
2018-11-23T22:51:17.184Z,58.90
2018-11-23T22:53:48.727Z,58.90
2018-11-23T22:56:20.068Z,58.80
2018-11-23T22:58:55.530Z,58.90
2018-11-23T23:01:23.634Z,58.80
2018-11-23T23:03:55.751Z,58.70
2018-11-23T23:06:27.193Z,58.80
2018-11-23T23:08:58.752Z,58.70
2018-11-23T23:11:41.863Z,58.60
2018-11-23T23:14:14.224Z,58.70
2018-11-23T23:16:48.096Z,58.80
2018-11-23T23:19:19.572Z,58.80
2018-11-23T23:21:51.076Z,58.90
2018-11-23T23:24:22.713Z,58.90
2018-11-23T23:26:54.084Z,59.00
2018-11-23T23:29:25.735Z,59.10
2018-11-23T23:31:57.040Z,59.10
2018-11-23T23:34:28.496Z,59.40
2018-11-23T23:36:59.584Z,59.10
2018-11-23T23:39:30.520Z,59.20
2018-11-23T23:42:02.037Z,59.20
2018-11-23T23:44:33.035Z,59.30
2018-11-23T23:47:04.346Z,59.20
2018-11-23T23:49:35.958Z,59.20
2018-11-23T23:52:07.339Z,59.20
2018-11-23T23:54:38.596Z,59.20
2018-11-23T23:57:10.149Z,59.20
2018-11-23T23:59:41.564Z,59.30
